createdAt,value
2018-03-17T00:00:44.959Z,3.60
2018-03-17T00:03:12.387Z,3.50
2018-03-17T00:05:40.596Z,3.50
2018-03-17T00:08:08.028Z,3.50
2018-03-17T00:10:35.449Z,3.50
2018-03-17T00:13:02.904Z,3.50
2018-03-17T00:15:30.310Z,3.50
2018-03-17T00:17:57.841Z,3.40
2018-03-17T00:20:25.255Z,3.40
2018-03-17T00:22:52.795Z,3.40
2018-03-17T00:25:20.258Z,3.40
2018-03-17T00:27:47.736Z,3.30
2018-03-17T00:30:15.196Z,3.30
2018-03-17T00:32:42.632Z,3.30
2018-03-17T00:35:10.041Z,3.20
2018-03-17T00:37:37.705Z,3.20
2018-03-17T00:40:05.121Z,3.20
2018-03-17T00:42:32.648Z,3.20
2018-03-17T00:45:00.063Z,3.20
2018-03-17T00:47:27.584Z,3.20
2018-03-17T00:49:55.061Z,3.10
2018-03-17T00:52:22.483Z,3.20
2018-03-17T00:54:49.908Z,3.20
2018-03-17T00:57:17.360Z,3.20
2018-03-17T00:59:44.832Z,3.10
2018-03-17T01:02:13.026Z,3.10
2018-03-17T01:04:40.494Z,3.10
2018-03-17T01:07:07.924Z,3.10
2018-03-17T01:09:36.167Z,3.10
2018-03-17T01:12:03.579Z,3.00
2018-03-17T01:14:31.772Z,3.00
2018-03-17T01:16:59.963Z,3.00
2018-03-17T01:19:28.147Z,3.00
2018-03-17T01:21:56.367Z,3.00
2018-03-17T01:24:23.787Z,3.00
2018-03-17T01:26:51.216Z,3.10
2018-03-17T01:29:18.634Z,3.10
2018-03-17T01:31:46.064Z,3.00
2018-03-17T01:34:13.507Z,3.00
2018-03-17T01:36:40.941Z,3.00
2018-03-17T01:39:09.152Z,2.90
2018-03-17T01:41:36.633Z,2.80
2018-03-17T01:44:04.055Z,2.80
2018-03-17T01:46:31.484Z,2.80
2018-03-17T01:48:59.864Z,2.90
2018-03-17T01:51:27.284Z,2.80
2018-03-17T01:54:08.164Z,2.80
2018-03-17T01:56:35.577Z,2.80
2018-03-17T01:59:03.164Z,2.90
2018-03-17T02:01:30.572Z,2.80
2018-03-17T02:03:58.100Z,2.80
2018-03-17T02:06:25.572Z,2.90
2018-03-17T02:08:53.924Z,2.90
2018-03-17T02:11:22.115Z,2.80
2018-03-17T02:13:50.340Z,2.80
2018-03-17T02:16:17.804Z,2.80
2018-03-17T02:18:46.193Z,2.90
2018-03-17T02:21:13.617Z,2.90
2018-03-17T02:23:41.132Z,2.90
2018-03-17T02:26:08.548Z,2.80
2018-03-17T02:28:35.975Z,2.90
2018-03-17T02:31:03.404Z,2.90
2018-03-17T02:33:30.913Z,2.90
2018-03-17T02:35:58.388Z,2.90
2018-03-17T02:38:26.720Z,2.80
2018-03-17T02:40:54.241Z,2.80
2018-03-17T02:43:21.667Z,2.80
2018-03-17T02:45:49.086Z,2.80
2018-03-17T02:48:16.507Z,2.80
2018-03-17T02:50:43.931Z,2.80
2018-03-17T02:53:11.373Z,2.70
2018-03-17T02:55:39.575Z,2.70
2018-03-17T02:58:06.996Z,2.70
2018-03-17T03:00:34.516Z,2.70
2018-03-17T03:03:01.944Z,2.80
2018-03-17T03:05:29.462Z,2.80
2018-03-17T03:07:56.924Z,2.80
2018-03-17T03:10:24.396Z,2.80
2018-03-17T03:12:51.828Z,2.80
2018-03-17T03:15:19.299Z,2.70
2018-03-17T03:17:46.724Z,2.60
2018-03-17T03:20:14.139Z,2.60
2018-03-17T03:22:42.344Z,2.50
2018-03-17T03:25:10.540Z,2.50
2018-03-17T03:27:38.017Z,2.50
2018-03-17T03:30:05.428Z,2.50
2018-03-17T03:32:32.958Z,2.50
2018-03-17T03:35:00.424Z,2.40
2018-03-17T03:37:27.852Z,2.40
2018-03-17T03:39:55.360Z,2.40
2018-03-17T03:42:22.792Z,2.50
2018-03-17T03:44:50.975Z,2.60
2018-03-17T03:47:18.399Z,2.50
2018-03-17T03:49:45.856Z,2.50
2018-03-17T03:52:13.271Z,2.50
2018-03-17T03:54:40.796Z,2.50
2018-03-17T03:57:08.271Z,2.40
2018-03-17T03:59:35.701Z,2.40
2018-03-17T04:02:03.881Z,2.40
2018-03-17T04:04:31.392Z,2.40
2018-03-17T04:06:58.860Z,2.50
2018-03-17T04:09:26.286Z,2.50
2018-03-17T04:11:53.804Z,2.50
2018-03-17T04:14:21.272Z,2.40
2018-03-17T04:16:48.696Z,2.40
2018-03-17T04:19:16.212Z,2.40
2018-03-17T04:21:43.628Z,2.40
2018-03-17T04:24:11.056Z,2.40
2018-03-17T04:26:38.500Z,2.40
2018-03-17T04:29:06.691Z,2.40
2018-03-17T04:31:34.183Z,2.40
2018-03-17T04:34:01.614Z,2.40
2018-03-17T04:36:29.834Z,2.40
2018-03-17T04:38:58.163Z,2.30
2018-03-17T04:41:25.692Z,2.30
2018-03-17T04:43:53.121Z,2.20
2018-03-17T04:46:20.616Z,2.10
2018-03-17T04:48:48.816Z,2.00
2018-03-17T04:51:16.261Z,2.00
2018-03-17T04:53:43.663Z,2.00
2018-03-17T04:56:11.082Z,1.90
2018-03-17T04:58:39.465Z,1.90
2018-03-17T05:01:06.990Z,1.90
2018-03-17T05:03:34.407Z,1.90
2018-03-17T05:06:01.931Z,1.90
2018-03-17T05:08:30.264Z,1.90
2018-03-17T05:10:57.685Z,1.90
2018-03-17T05:13:25.116Z,1.90
2018-03-17T05:15:52.536Z,1.80
2018-03-17T05:18:19.959Z,1.80
2018-03-17T05:20:48.147Z,1.80
2018-03-17T05:23:15.656Z,1.80
2018-03-17T05:25:43.072Z,1.80
2018-03-17T05:28:10.499Z,1.70
2018-03-17T05:30:37.923Z,1.70
2018-03-17T05:33:06.111Z,1.80
2018-03-17T05:35:34.323Z,1.70
2018-03-17T05:38:02.502Z,1.70
2018-03-17T05:40:30.676Z,1.70
2018-03-17T05:42:58.875Z,1.80
2018-03-17T05:45:27.061Z,1.80
2018-03-17T05:47:55.252Z,1.90
2018-03-17T05:50:23.436Z,1.90
2018-03-17T05:52:50.872Z,1.90
2018-03-17T05:55:18.292Z,2.00
2018-03-17T05:57:45.761Z,2.00
2018-03-17T06:00:13.180Z,1.90
2018-03-17T06:02:40.736Z,1.90
2018-03-17T06:05:08.152Z,1.90
2018-03-17T06:07:36.335Z,2.00
2018-03-17T06:10:04.543Z,2.00
2018-03-17T06:12:31.959Z,2.00
2018-03-17T06:15:00.200Z,2.00
2018-03-17T06:17:27.678Z,2.00
2018-03-17T06:19:55.136Z,2.00
2018-03-17T06:22:22.609Z,1.90
2018-03-17T06:24:50.077Z,1.90
2018-03-17T06:27:17.560Z,1.90
2018-03-17T06:29:44.980Z,1.90
2018-03-17T06:32:12.404Z,1.90
2018-03-17T06:34:39.824Z,1.80
2018-03-17T06:37:08.051Z,1.90
2018-03-17T06:39:35.471Z,1.90
2018-03-17T06:42:02.892Z,1.90
2018-03-17T06:44:30.321Z,1.90
2018-03-17T06:46:58.542Z,1.90
2018-03-17T06:49:25.972Z,1.90
2018-03-17T06:51:53.388Z,1.90
2018-03-17T06:54:20.820Z,1.90
2018-03-17T06:56:49.000Z,1.80
2018-03-17T06:59:17.196Z,1.80
2018-03-17T07:01:45.382Z,1.80
2018-03-17T07:04:13.593Z,1.90
2018-03-17T07:06:41.064Z,1.90
2018-03-17T07:09:08.492Z,1.90
2018-03-17T07:11:35.907Z,1.90
2018-03-17T07:14:03.339Z,1.90
2018-03-17T07:16:31.519Z,1.90
2018-03-17T07:18:59.718Z,2.00
2018-03-17T07:21:27.905Z,2.00
2018-03-17T07:23:56.119Z,2.00
2018-03-17T07:26:23.588Z,2.00
2018-03-17T07:28:51.018Z,2.00
2018-03-17T07:31:18.440Z,1.90
2018-03-17T07:33:45.863Z,1.90
2018-03-17T07:36:14.076Z,1.90
2018-03-17T07:38:41.548Z,1.80
2018-03-17T07:41:08.978Z,1.80
2018-03-17T07:43:36.408Z,1.70
2018-03-17T07:46:03.823Z,1.80
2018-03-17T07:48:33.011Z,1.80
2018-03-17T07:51:00.428Z,1.80
2018-03-17T07:53:27.903Z,1.80
2018-03-17T07:55:55.329Z,1.80
2018-03-17T07:58:22.748Z,1.80
2018-03-17T08:00:50.185Z,1.80
2018-03-17T08:03:17.599Z,1.70
2018-03-17T08:05:45.029Z,1.80
2018-03-17T08:08:13.235Z,1.80
2018-03-17T08:10:41.412Z,1.90
2018-03-17T08:13:08.892Z,1.90
2018-03-17T08:15:36.319Z,1.90
2018-03-17T08:18:03.836Z,1.90
2018-03-17T08:20:31.305Z,2.00
2018-03-17T08:22:58.724Z,2.00
2018-03-17T08:25:26.244Z,2.10
2018-03-17T08:27:53.660Z,2.10
2018-03-17T08:30:21.181Z,2.10
2018-03-17T08:32:48.651Z,2.10
2018-03-17T08:35:16.084Z,2.10
2018-03-17T08:37:43.505Z,2.10
2018-03-17T08:40:10.932Z,2.10
2018-03-17T08:42:39.148Z,2.00
2018-03-17T08:45:06.728Z,2.00
2018-03-17T08:47:34.184Z,2.00
2018-03-17T08:50:01.616Z,2.00
2018-03-17T08:52:29.124Z,2.10
2018-03-17T08:54:56.596Z,2.10
2018-03-17T08:57:24.015Z,2.20
2018-03-17T08:59:52.972Z,2.20
2018-03-17T09:02:20.656Z,2.20
2018-03-17T09:04:48.116Z,2.30
2018-03-17T09:07:16.268Z,2.40
2018-03-17T09:09:44.486Z,2.40
2018-03-17T09:12:11.993Z,2.40
2018-03-17T09:14:39.384Z,2.40
2018-03-17T09:17:06.808Z,2.40
2018-03-17T09:19:34.241Z,2.40
2018-03-17T09:22:02.460Z,2.50
2018-03-17T09:24:29.919Z,2.50
2018-03-17T09:26:57.348Z,2.50
2018-03-17T09:29:24.781Z,2.50
2018-03-17T09:31:52.199Z,2.60
2018-03-17T09:34:20.415Z,2.60
2018-03-17T09:36:47.840Z,2.60
2018-03-17T09:39:15.259Z,2.60
2018-03-17T09:41:42.728Z,2.60
2018-03-17T09:44:10.156Z,2.50
2018-03-17T09:46:37.572Z,2.40
2018-03-17T09:49:05.006Z,2.30
2018-03-17T09:51:33.220Z,2.30
2018-03-17T09:54:00.685Z,2.30
2018-03-17T09:56:28.112Z,2.30
2018-03-17T09:58:55.531Z,2.30
2018-03-17T10:01:22.997Z,2.40
2018-03-17T10:03:50.419Z,2.30
2018-03-17T10:06:17.941Z,2.30
2018-03-17T10:08:45.404Z,2.30
2018-03-17T10:11:12.828Z,2.30
2018-03-17T10:13:40.249Z,2.40
2018-03-17T10:16:07.689Z,2.40
2018-03-17T10:18:36.928Z,2.20
2018-03-17T10:21:04.360Z,2.20
2018-03-17T10:23:31.905Z,2.10
2018-03-17T10:25:59.285Z,2.10
2018-03-17T10:28:26.699Z,2.10
2018-03-17T10:30:54.172Z,2.10
2018-03-17T10:33:21.640Z,2.10
2018-03-17T10:35:49.108Z,2.10
2018-03-17T10:38:16.579Z,2.10
2018-03-17T10:40:44.008Z,2.10
2018-03-17T10:43:11.423Z,2.20
2018-03-17T10:45:38.848Z,2.20
2018-03-17T10:48:06.300Z,2.20
2018-03-17T10:50:33.721Z,2.20
2018-03-17T10:53:01.200Z,2.30
2018-03-17T10:55:28.621Z,2.30
2018-03-17T10:57:56.036Z,2.40
2018-03-17T11:00:27.320Z,2.40
2018-03-17T11:02:54.731Z,2.40
2018-03-17T11:05:22.924Z,2.40
2018-03-17T11:07:51.120Z,2.30
2018-03-17T11:10:18.540Z,2.30
2018-03-17T11:12:45.960Z,2.30
2018-03-17T11:15:13.439Z,2.20
2018-03-17T11:17:40.864Z,2.30
2018-03-17T11:20:09.052Z,2.20
2018-03-17T11:22:36.472Z,2.10
2018-03-17T11:25:03.900Z,2.20
2018-03-17T11:27:33.151Z,2.30
2018-03-17T11:30:00.639Z,2.30
2018-03-17T11:32:28.035Z,2.30
2018-03-17T11:34:55.557Z,2.30
2018-03-17T11:37:22.967Z,2.30
2018-03-17T11:39:50.389Z,2.40
2018-03-17T11:42:17.868Z,2.40
2018-03-17T11:44:45.296Z,2.50
2018-03-17T11:47:12.711Z,2.50
2018-03-17T11:49:40.175Z,2.50
2018-03-17T11:52:07.643Z,2.50
2018-03-17T11:54:35.064Z,2.50
2018-03-17T11:57:02.579Z,2.50
2018-03-17T11:59:29.996Z,2.50
2018-03-17T12:01:57.411Z,2.50
2018-03-17T12:04:24.832Z,2.50
2018-03-17T12:06:52.352Z,2.50
2018-03-17T12:09:19.828Z,2.50
2018-03-17T12:11:47.243Z,2.40
2018-03-17T12:14:15.438Z,2.40
2018-03-17T12:16:44.394Z,2.40
2018-03-17T12:19:11.859Z,2.40
2018-03-17T12:21:40.044Z,2.30
2018-03-17T12:24:07.620Z,2.30
2018-03-17T12:26:35.042Z,2.30
2018-03-17T12:29:02.555Z,2.40
2018-03-17T12:31:29.972Z,2.40
2018-03-17T12:33:57.492Z,2.40
2018-03-17T12:36:24.917Z,2.40
2018-03-17T12:38:52.340Z,2.40
2018-03-17T12:41:19.775Z,2.30
2018-03-17T12:43:47.956Z,2.20
2018-03-17T12:46:16.144Z,2.20
2018-03-17T12:48:44.363Z,2.20
2018-03-17T12:51:11.788Z,2.10
2018-03-17T12:53:39.302Z,2.00
2018-03-17T12:56:06.729Z,2.00
2018-03-17T12:58:34.143Z,2.00
2018-03-17T13:01:01.573Z,1.90
2018-03-17T13:03:29.940Z,2.00
2018-03-17T13:05:57.350Z,2.00
2018-03-17T13:08:25.570Z,2.10
2018-03-17T13:10:52.995Z,2.10
2018-03-17T13:57:02.241Z,1.90
2018-03-17T13:59:29.748Z,1.70
2018-03-17T14:01:57.216Z,1.50
2018-03-17T14:04:24.631Z,1.50
2018-03-17T14:06:52.059Z,1.60
2018-03-17T14:09:19.480Z,1.70
2018-03-17T14:11:46.904Z,1.70
2018-03-17T14:14:14.368Z,1.70
2018-03-17T14:16:42.318Z,1.70
2018-03-17T14:19:12.016Z,1.60
2018-03-17T14:21:39.545Z,1.60
2018-03-17T14:24:06.965Z,1.60
2018-03-17T14:26:34.393Z,1.50
2018-03-17T14:29:01.854Z,1.60
2018-03-17T14:31:29.280Z,1.60
2018-03-17T14:33:57.464Z,1.70
2018-03-17T14:36:24.887Z,1.70
2018-03-17T14:38:52.308Z,1.70
2018-03-17T14:41:20.553Z,1.50
2018-03-17T14:43:47.978Z,1.50
2018-03-17T14:46:16.161Z,1.40
2018-03-17T14:48:44.352Z,1.30
2018-03-17T14:51:12.540Z,1.20
2018-03-17T14:53:40.755Z,1.20
2018-03-17T14:56:08.179Z,1.20
2018-03-17T14:58:35.596Z,1.20
2018-03-17T15:01:03.049Z,1.30
2018-03-17T15:03:30.544Z,1.30
2018-03-17T15:05:57.968Z,1.30
2018-03-17T15:08:26.148Z,1.30
2018-03-17T15:10:54.344Z,1.30
2018-03-17T15:13:22.524Z,1.40
2018-03-17T15:15:50.745Z,1.40
2018-03-17T15:18:18.160Z,1.40
2018-03-17T15:20:45.588Z,1.40
2018-03-17T15:23:13.009Z,1.40
2018-03-17T15:25:40.434Z,1.30
2018-03-17T15:28:08.521Z,1.30
2018-03-17T15:30:35.975Z,1.40
2018-03-17T15:33:03.404Z,1.40
2018-03-17T15:35:31.600Z,1.40
2018-03-17T15:37:59.820Z,1.30
2018-03-17T15:40:27.252Z,1.30
2018-03-17T15:42:55.478Z,1.30
2018-03-17T15:45:22.901Z,1.30
2018-03-17T15:47:50.407Z,1.30
2018-03-17T15:50:17.836Z,1.30
2018-03-17T15:52:45.352Z,1.20
2018-03-17T15:55:12.820Z,1.20
2018-03-17T15:57:40.299Z,1.10
2018-03-17T16:00:07.732Z,1.00
2018-03-17T16:02:35.941Z,0.80
2018-03-17T16:05:03.360Z,0.80
2018-03-17T16:07:30.887Z,0.90
2018-03-17T16:09:58.296Z,0.90
2018-03-17T16:12:25.834Z,0.90
2018-03-17T16:14:53.296Z,0.90
2018-03-17T16:17:20.760Z,0.90
2018-03-17T16:19:48.205Z,0.80
2018-03-17T16:22:15.705Z,0.80
2018-03-17T16:24:43.175Z,0.80
2018-03-17T16:27:10.748Z,0.80
2018-03-17T16:29:38.218Z,0.80
2018-03-17T16:32:05.680Z,0.70
2018-03-17T16:34:33.088Z,0.70
2018-03-17T16:37:00.528Z,0.60
2018-03-17T16:39:27.995Z,0.60
2018-03-17T16:41:55.424Z,0.60
2018-03-17T16:44:23.648Z,0.50
2018-03-17T16:46:51.076Z,0.50
2018-03-17T16:49:18.502Z,0.50
2018-03-17T16:51:45.956Z,0.60
2018-03-17T16:54:13.335Z,0.60
2018-03-17T16:56:40.755Z,0.60
2018-03-17T16:59:08.264Z,0.50
2018-03-17T17:01:35.688Z,0.60
2018-03-17T17:04:03.923Z,0.50
2018-03-17T17:06:31.344Z,0.50
2018-03-17T17:08:58.856Z,0.40
2018-03-17T17:11:26.337Z,0.40
2018-03-17T17:13:53.801Z,0.30
2018-03-17T17:16:21.236Z,0.30
2018-03-17T17:18:49.464Z,0.20
2018-03-17T17:21:16.885Z,0.20
2018-03-17T17:23:44.326Z,0.20
2018-03-17T17:26:11.768Z,0.20
2018-03-17T17:28:39.240Z,0.30
2018-03-17T17:31:06.672Z,0.30
2018-03-17T17:33:34.892Z,0.30
2018-03-17T17:36:02.397Z,0.30
2018-03-17T17:38:29.741Z,0.20
2018-03-17T17:40:57.168Z,0.30
2018-03-17T17:43:25.387Z,0.20
2018-03-17T17:45:52.830Z,0.20
2018-03-17T17:48:20.323Z,0.20
2018-03-17T17:50:47.747Z,0.10
2018-03-17T17:53:15.164Z,0.10
2018-03-17T17:55:42.589Z,0.10
2018-03-17T17:58:10.003Z,0.10
2018-03-17T18:00:37.435Z,0.10
2018-03-17T18:03:05.655Z,0.00
2018-03-17T18:05:33.843Z,0.00
2018-03-17T18:08:01.268Z,0.00
2018-03-17T18:10:28.684Z,0.00
2018-03-17T18:12:56.151Z,0.00
2018-03-17T18:15:23.572Z,0.00
2018-03-17T18:17:51.096Z,-0.10
2018-03-17T18:20:18.559Z,0.00
2018-03-17T18:22:45.988Z,0.00
2018-03-17T18:25:13.428Z,0.00
2018-03-17T18:27:40.867Z,0.00
2018-03-17T18:30:08.293Z,-0.10
2018-03-17T18:32:35.720Z,-0.10
2018-03-17T18:35:03.204Z,-0.10
2018-03-17T18:37:30.638Z,-0.10
2018-03-17T18:39:58.120Z,-0.10
2018-03-17T18:42:25.544Z,-0.10
2018-03-17T18:44:52.969Z,0.00
2018-03-17T18:47:20.400Z,-0.10
2018-03-17T18:49:48.608Z,-0.10
2018-03-17T18:52:16.080Z,-0.10
2018-03-17T18:54:43.493Z,-0.20
2018-03-17T18:57:11.016Z,-0.20
2018-03-17T18:59:38.439Z,-0.10
2018-03-17T19:02:05.961Z,-0.10
2018-03-17T19:04:33.428Z,-0.10
2018-03-17T19:07:00.898Z,-0.10
2018-03-17T19:09:28.324Z,-0.10
2018-03-17T19:11:55.840Z,-0.10
2018-03-17T19:14:23.309Z,-0.10
2018-03-17T19:16:50.736Z,-0.10
2018-03-17T19:19:18.158Z,0.00
2018-03-17T19:21:45.620Z,0.00
2018-03-17T19:24:13.080Z,-0.10
2018-03-17T19:26:40.564Z,-0.10
2018-03-17T19:29:08.032Z,-0.10
2018-03-17T19:31:35.492Z,-0.10
2018-03-17T19:34:02.911Z,0.00
2018-03-17T19:36:30.336Z,0.00
2018-03-17T19:38:57.784Z,-0.10
2018-03-17T19:41:25.955Z,0.00
2018-03-17T19:43:54.174Z,0.00
2018-03-17T19:46:21.588Z,0.00
2018-03-17T19:48:49.116Z,0.00
2018-03-17T19:51:16.540Z,-0.10
2018-03-17T19:53:44.064Z,-0.10
2018-03-17T19:56:11.536Z,-0.10
2018-03-17T19:58:38.964Z,-0.10
2018-03-17T20:01:07.164Z,-0.20
2018-03-17T20:03:34.599Z,-0.20
2018-03-17T20:06:02.019Z,-0.10
2018-03-17T20:08:29.493Z,-0.20
2018-03-17T20:10:56.960Z,-0.20
2018-03-17T20:13:24.388Z,-0.20
2018-03-17T20:15:51.893Z,-0.20
2018-03-17T20:18:19.368Z,-0.20
2018-03-17T20:20:47.556Z,-0.20
2018-03-17T20:23:15.024Z,-0.20
2018-03-17T20:25:42.451Z,-0.30
2018-03-17T20:28:10.012Z,-0.30
2018-03-17T20:30:37.536Z,-0.30
2018-03-17T20:33:04.956Z,-0.30
2018-03-17T20:35:32.383Z,-0.30
2018-03-17T20:37:59.799Z,-0.30
2018-03-17T20:40:27.313Z,-0.30
2018-03-17T20:42:54.788Z,-0.30
2018-03-17T20:45:22.215Z,-0.30
2018-03-17T20:47:50.407Z,-0.30
2018-03-17T20:50:18.616Z,-0.30
2018-03-17T20:52:46.039Z,-0.30
2018-03-17T20:55:13.569Z,-0.30
2018-03-17T20:57:41.057Z,-0.30
2018-03-17T21:00:08.512Z,-0.40
2018-03-17T21:02:35.948Z,-0.40
2018-03-17T21:05:04.152Z,-0.30
2018-03-17T21:07:32.344Z,-0.30
2018-03-17T21:09:59.776Z,-0.30
2018-03-17T21:12:27.200Z,-0.30
2018-03-17T21:14:54.660Z,-0.30
2018-03-17T21:17:22.128Z,-0.30
2018-03-17T21:19:50.324Z,-0.40
2018-03-17T21:22:17.801Z,-0.40
2018-03-17T21:24:45.940Z,-0.40
2018-03-17T21:27:14.138Z,-0.40
2018-03-17T21:29:42.350Z,-0.40
2018-03-17T21:32:09.776Z,-0.40
2018-03-17T21:34:38.000Z,-0.30
2018-03-17T21:37:05.436Z,-0.40
2018-03-17T21:39:33.660Z,-0.30
2018-03-17T21:42:01.084Z,-0.30
2018-03-17T21:44:28.599Z,-0.20
2018-03-17T21:46:56.032Z,-0.20
2018-03-17T21:49:24.247Z,-0.20
2018-03-17T21:51:51.723Z,-0.20
2018-03-17T21:54:19.195Z,-0.20
2018-03-17T21:56:46.663Z,-0.20
2018-03-17T21:59:14.140Z,-0.30
2018-03-17T22:01:41.571Z,-0.30
2018-03-17T22:04:09.764Z,-0.30
2018-03-17T22:06:37.952Z,-0.20
2018-03-17T22:09:06.147Z,-0.20
2018-03-17T22:11:33.564Z,-0.20
2018-03-17T22:14:01.000Z,-0.20
2018-03-17T22:16:28.419Z,-0.20
2018-03-17T22:18:56.808Z,-0.20
2018-03-17T22:21:24.340Z,-0.30
2018-03-17T22:23:51.784Z,-0.30
2018-03-17T22:26:19.207Z,-0.30
2018-03-17T22:28:46.639Z,-0.30
2018-03-17T22:31:14.072Z,-0.40
2018-03-17T22:33:41.512Z,-0.30
2018-03-17T22:36:08.936Z,-0.30
2018-03-17T22:38:36.412Z,-0.30
2018-03-17T22:41:04.600Z,-0.40
2018-03-17T22:43:32.039Z,-0.40
2018-03-17T22:46:00.257Z,-0.40
2018-03-17T22:48:27.734Z,-0.40
2018-03-17T22:50:55.152Z,-0.40
2018-03-17T22:53:22.600Z,-0.30
2018-03-17T22:55:50.033Z,-0.30
2018-03-17T22:58:17.463Z,-0.40
2018-03-17T23:00:44.984Z,-0.40
2018-03-17T23:03:12.410Z,-0.40
2018-03-17T23:05:39.912Z,-0.30
2018-03-17T23:08:07.340Z,-0.30
2018-03-17T23:10:34.767Z,-0.30
2018-03-17T23:13:02.183Z,-0.30
2018-03-17T23:15:31.446Z,-0.30
2018-03-17T23:17:58.872Z,-0.40
2018-03-17T23:20:27.126Z,-0.30
2018-03-17T23:22:54.552Z,-0.30
2018-03-17T23:25:21.984Z,-0.30
2018-03-17T23:27:49.412Z,-0.30
2018-03-17T23:30:16.852Z,-0.30
2018-03-17T23:32:45.036Z,-0.30
2018-03-17T23:35:13.343Z,-0.40
2018-03-17T23:37:40.767Z,-0.40
2018-03-17T23:40:08.195Z,-0.50
2018-03-17T23:42:35.623Z,-0.60
2018-03-17T23:45:03.817Z,-0.60
2018-03-17T23:47:32.023Z,-0.70
2018-03-17T23:49:59.490Z,-0.70
2018-03-17T23:52:26.892Z,-0.80
2018-03-17T23:54:54.315Z,-0.70
2018-03-17T23:57:21.804Z,-0.70
2018-03-17T23:59:49.234Z,-0.70
